createdAt,value
2022-08-03T05:20:06.775Z,97379.44
2022-08-03T05:41:20.412Z,97385.47
2022-08-03T05:44:08.640Z,97383.25
2022-08-03T05:46:55.055Z,97377.28
2022-08-03T05:49:40.630Z,97375.25
2022-08-03T05:52:26.144Z,97375.13
2022-08-03T05:55:13.948Z,97374.06
2022-08-03T05:57:59.563Z,97373.53
2022-08-03T06:00:44.825Z,97373.63
2022-08-03T06:03:30.275Z,97371.22
2022-08-03T06:06:15.870Z,97365.25
2022-08-03T06:09:01.698Z,97367.41
2022-08-03T06:11:47.135Z,97366.88
2022-08-03T06:14:32.809Z,97365.56
2022-08-03T06:17:18.274Z,97362.31
2022-08-03T06:20:04.184Z,97362.06
2022-08-03T06:22:50.745Z,97361.94
2022-08-03T06:25:36.845Z,97351.81
2022-08-03T06:28:53.720Z,97351.38
2022-08-03T06:31:33.395Z,97351.97
2022-08-03T06:34:33.790Z,97353.75
2022-08-03T06:37:21.002Z,97351.00
2022-08-03T06:40:06.796Z,97353.22
2022-08-03T06:42:52.036Z,97359.56
2022-08-03T06:45:37.617Z,97357.84
2022-08-03T06:48:23.263Z,97362.94
2022-08-03T06:51:08.758Z,97359.13
2022-08-03T06:53:54.145Z,97364.84
2022-08-03T06:56:39.480Z,97363.00
2022-08-03T07:00:08.446Z,97363.72
2022-08-03T07:02:30.428Z,97358.59
2022-08-03T07:05:16.558Z,97357.91
2022-08-03T07:49:28.174Z,97356.22
2022-08-03T08:10:58.137Z,97348.91
2022-08-03T08:16:47.922Z,97339.25
2022-08-03T08:19:31.752Z,97329.09
2022-08-03T08:34:52.254Z,97330.91
2022-08-03T08:37:51.054Z,97323.56
2022-08-03T08:40:37.201Z,97319.94
2022-08-03T08:46:48.282Z,97316.69
2022-08-03T08:49:36.927Z,97323.28
2022-08-03T08:52:31.950Z,97323.41
2022-08-03T08:55:23.559Z,97318.09
2022-08-03T09:07:10.814Z,97312.72
2022-08-03T09:10:07.598Z,97311.47
2022-08-03T09:12:58.972Z,97307.13
2022-08-03T09:15:52.738Z,97306.25
2022-08-03T09:18:51.503Z,97314.13
2022-08-03T09:21:41.523Z,97305.03
2022-08-03T09:24:41.481Z,97307.97
2022-08-03T09:27:27.915Z,97308.94
2022-08-03T09:30:33.886Z,97304.16
2022-08-03T09:33:21.188Z,97311.41
2022-08-03T09:36:10.366Z,97311.00
2022-08-03T09:39:10.995Z,97308.19
2022-08-03T09:42:11.016Z,97304.59
2022-08-03T09:45:00.636Z,97307.94
2022-08-03T09:47:46.843Z,97299.66
2022-08-03T09:50:57.014Z,97305.69
2022-08-03T09:53:58.923Z,97305.41
2022-08-03T09:56:47.684Z,97305.84
2022-08-03T09:59:34.664Z,97296.94
2022-08-03T10:02:27.162Z,97292.66
2022-08-03T10:05:19.572Z,97291.69
2022-08-03T10:10:54.884Z,97291.94
2022-08-03T10:13:41.017Z,97284.41
2022-08-03T10:16:27.140Z,97292.13
2022-08-03T10:19:45.459Z,97277.88
2022-08-03T10:22:37.283Z,97279.72
2022-08-03T10:28:15.604Z,97282.31
2022-08-03T10:31:02.968Z,97269.25
2022-08-03T10:33:53.316Z,97266.94
2022-08-03T10:36:41.220Z,97273.63
2022-08-03T10:45:36.629Z,97263.91
2022-08-03T10:48:23.846Z,97265.44
2022-08-03T10:51:10.310Z,97267.00
2022-08-03T10:53:56.370Z,97260.66
2022-08-03T10:57:13.288Z,97264.53
2022-08-03T11:00:00.739Z,97245.66
2022-08-03T11:12:37.477Z,97241.16
2022-08-03T11:21:52.984Z,97237.41
2022-08-03T11:24:39.627Z,97237.41
2022-08-03T11:27:26.769Z,97236.50
2022-08-03T11:30:19.631Z,97225.75
2022-08-03T11:33:06.030Z,97226.72
2022-08-03T11:36:01.707Z,97222.56
2022-08-03T11:39:17.076Z,97225.97
2022-08-03T11:42:29.362Z,97226.94
2022-08-03T11:45:15.792Z,97230.63
2022-08-03T11:49:17.513Z,97223.22
2022-08-03T11:52:42.370Z,97213.56
2022-08-03T12:08:20.619Z,97205.69
2022-08-03T12:18:11.342Z,97200.91
2022-08-03T12:27:10.305Z,97205.72
2022-08-03T12:30:02.395Z,97209.41
2022-08-03T12:32:48.079Z,97202.69
2022-08-03T12:35:40.218Z,97196.75
2022-08-03T12:38:55.386Z,97198.72
2022-08-03T12:41:41.212Z,97200.44
2022-08-03T12:44:32.290Z,97196.00
2022-08-03T12:47:18.066Z,97195.81
2022-08-03T12:50:34.143Z,97193.34
2022-08-03T12:53:31.435Z,97193.75
2022-08-03T12:56:20.764Z,97188.34
2022-08-03T13:02:04.576Z,97191.88
2022-08-03T13:04:55.966Z,97183.72
2022-08-03T13:07:46.228Z,97182.59
2022-08-03T13:10:33.516Z,97174.00
2022-08-03T13:13:20.803Z,97181.56
2022-08-03T13:16:06.301Z,97178.28
2022-08-03T13:18:53.314Z,97178.63
2022-08-03T13:21:53.674Z,97183.34
2022-08-03T13:24:47.118Z,97187.66
2022-08-03T13:28:03.389Z,97178.47
2022-08-03T13:30:43.645Z,97174.00
2022-08-03T13:33:41.649Z,97172.63
2022-08-03T13:54:41.037Z,97156.84
2022-08-03T14:00:26.371Z,97153.25
2022-08-03T14:03:40.859Z,97153.22
2022-08-03T14:12:40.036Z,97147.19
2022-08-03T14:15:57.471Z,97151.03
2022-08-03T14:24:51.122Z,97144.53
2022-08-03T14:30:31.941Z,97142.47
2022-08-03T14:33:20.842Z,97134.63
2022-08-03T14:36:06.941Z,97140.97
2022-08-03T14:38:52.940Z,97139.44
2022-08-03T14:42:11.705Z,97137.19
2022-08-03T14:45:02.440Z,97142.09
2022-08-03T14:50:29.052Z,97129.59
2022-08-03T14:50:46.996Z,97132.06
2022-08-03T14:59:20.842Z,97124.31
2022-08-03T15:02:11.895Z,97123.22
2022-08-03T15:12:08.489Z,97108.88
2022-08-03T15:21:47.778Z,97109.13
2022-08-03T15:24:33.783Z,97106.47
2022-08-03T15:27:35.181Z,97101.78
2022-08-03T15:30:41.315Z,97104.09
2022-08-03T15:33:27.652Z,97111.16
2022-08-03T15:36:38.894Z,97108.72
2022-08-03T15:39:25.012Z,97105.53
2022-08-03T15:42:06.629Z,97098.47
2022-08-03T15:47:54.987Z,97091.88
2022-08-03T15:50:42.083Z,97099.31
2022-08-03T15:53:29.722Z,97104.78
2022-08-03T15:56:18.617Z,97101.25
2022-08-03T15:59:11.755Z,97095.41
2022-08-03T16:04:50.647Z,97099.44
2022-08-03T16:16:41.191Z,97091.44
2022-08-03T16:19:27.977Z,97097.31
2022-08-03T16:25:18.326Z,97089.41
2022-08-03T16:28:08.113Z,97092.16
2022-08-03T16:30:58.546Z,97097.66
2022-08-03T16:33:44.159Z,97095.28
2022-08-03T16:36:34.618Z,97096.06
2022-08-03T16:39:22.172Z,97091.75
2022-08-03T16:42:07.942Z,97088.19
2022-08-03T16:47:42.141Z,97089.28
2022-08-03T16:50:28.085Z,97088.88
2022-08-03T16:54:05.303Z,97098.28
2022-08-03T16:56:43.011Z,97095.84
2022-08-03T16:59:36.385Z,97091.88
2022-08-03T17:02:26.064Z,97085.97
2022-08-03T17:05:13.099Z,97082.75
2022-08-03T17:08:01.112Z,97090.50
2022-08-03T17:10:48.821Z,97091.63
2022-08-03T17:16:34.493Z,97088.88
2022-08-03T17:19:25.292Z,97091.28
2022-08-03T17:22:15.982Z,97098.75
2022-08-03T17:26:02.613Z,97102.66
2022-08-03T17:28:57.408Z,97106.97
2022-08-03T17:31:48.547Z,97100.66
2022-08-03T17:34:49.090Z,97105.72
2022-08-03T17:37:58.075Z,97110.78
2022-08-03T17:44:16.401Z,97106.66
2022-08-03T17:46:58.622Z,97107.75
2022-08-03T17:49:44.724Z,97107.72
2022-08-03T17:55:55.940Z,97120.13
2022-08-03T17:58:55.107Z,97120.50
2022-08-03T18:02:29.894Z,97116.13
2022-08-03T18:08:38.948Z,97116.25
2022-08-03T18:11:35.560Z,97127.09
2022-08-03T18:14:38.682Z,97118.72
2022-08-03T18:20:31.296Z,97128.72
2022-08-03T18:23:25.048Z,97122.31
2022-08-03T18:26:24.385Z,97129.66
2022-08-03T18:29:13.840Z,97145.63
2022-08-03T18:32:06.080Z,97136.16
2022-08-03T18:34:58.306Z,97136.69
2022-08-03T18:37:52.031Z,97139.34
2022-08-03T18:40:38.581Z,97134.16
2022-08-03T18:43:47.272Z,97139.97
2022-08-03T18:46:50.876Z,97137.16
2022-08-03T18:50:24.640Z,97136.75
2022-08-03T18:53:19.621Z,97141.41
2022-08-03T18:56:21.165Z,97137.97
2022-08-03T18:59:15.775Z,97145.78
2022-08-03T19:02:13.605Z,97147.53
2022-08-03T19:05:08.176Z,97144.69
2022-08-03T19:08:08.872Z,97154.63
2022-08-03T19:13:51.011Z,97148.84
2022-08-03T19:19:43.333Z,97157.06
2022-08-03T19:22:32.353Z,97157.06
2022-08-03T19:28:33.540Z,97156.22
2022-08-03T19:31:21.299Z,97168.66
2022-08-03T19:34:19.888Z,97158.78
2022-08-03T19:37:03.813Z,97166.88
2022-08-03T19:43:07.413Z,97170.03
2022-08-03T19:49:00.415Z,97171.84
2022-08-03T19:52:03.014Z,97171.75
2022-08-03T19:54:54.626Z,97174.72
2022-08-03T19:57:45.656Z,97172.84
2022-08-03T20:00:38.129Z,97172.25
2022-08-03T20:03:28.003Z,97169.25
2022-08-03T20:06:29.594Z,97165.00
2022-08-03T20:09:16.332Z,97168.19
2022-08-03T20:17:58.646Z,97175.38
2022-08-03T20:33:00.009Z,97172.66
2022-08-03T20:35:48.855Z,97167.22
2022-08-03T20:38:35.834Z,97167.69
2022-08-03T20:41:30.673Z,97174.69
2022-08-03T20:44:17.009Z,97161.13
2022-08-03T20:47:04.617Z,97172.78
2022-08-03T20:52:50.955Z,97176.75
2022-08-03T20:55:48.016Z,97165.59
2022-08-03T20:58:50.676Z,97167.66
2022-08-03T21:01:37.948Z,97169.84
2022-08-03T21:04:24.243Z,97171.94
2022-08-03T21:07:17.464Z,97169.22
2022-08-03T21:10:05.979Z,97174.91
2022-08-03T21:13:16.950Z,97173.06
2022-08-03T21:16:14.173Z,97177.66
2022-08-03T21:19:03.707Z,97167.78
2022-08-03T21:30:20.133Z,97174.06
2022-08-03T21:33:06.720Z,97174.47
2022-08-03T21:35:53.074Z,97176.03
2022-08-03T21:48:06.855Z,97176.16
2022-08-03T21:50:56.742Z,97175.69
2022-08-03T21:54:04.063Z,97171.50
2022-08-03T21:56:51.540Z,97168.25
2022-08-03T21:59:40.578Z,97175.16
2022-08-03T22:30:36.426Z,97198.97
2022-08-03T23:01:09.052Z,97204.66
2022-08-03T23:24:29.751Z,97203.00
2022-08-03T23:33:15.856Z,97203.75
